首页
METAR-TAF:

METAR-TAF

机场 :

溫莎國際機場

温莎, 安大略省, 加拿大

纬度: 42-16N, 经度: 082-58W, 海拔: 190米

当前天气观测

该预报发布于25分钟前的11:00 UTC
风速2节,风向
温度 19°C
湿度 94%
气压 1011 hPa
能見度: 14.5公里
天空无云

METAR: CYQG 051100Z AUTO 17002KT 9SM CLR 19/18 A2984 RMK SLP102 DENSITY ALT 1200FT

时间: 07:25 (11:25 UTC)

预报

该预报发布于2小时和37分钟前的08:48 UTC
预报有效从05日的 08点(UTC)到 06日的 06点(UTC)
风速3节,风向多变
能見度: 10公里
少量云层高于20000英尺
短暂存在
从 05日的 08点(UTC)到 05日的 12点(UTC)
能見度: 3.2公里
轻雾
从 05日的 1500点(UTC)
风速7节,风向西
能見度: 10公里
少量云层高于7000英尺
从 05日的 2000点(UTC)
风速12节,风向西
能見度: 10公里
多云层高于7000英尺
几率 30%
从 05日的 23点(UTC)到 06日的 02点(UTC)
风速15节,风向多变,有时为25节阵风
能見度: 3.2公里
多云层高于2000英尺
阴天层高于5000英尺, 积雨云.
雷暴, 雨, 轻雾
从 06日的 0200点(UTC)
风速10节,风向西转西北,有时为20节阵风
能見度: 10公里
多云层高于5000英尺
从 06日的 0500点(UTC)
风速10节,风向北转西北
能見度: 10公里
少量云层高于3000英尺

TAF: CYQG 050848Z 0508/0606 VRB03KT P6SM FEW200 TEMPO 0508/0512 2SM BR FM051500 28007KT P6SM FEW070 FM052000 26012KT P6SM BKN070 PROB30 0523/0602 VRB15G25KT 2SM TSRA BR BKN020 OVC050CB FM060200 30010G20KT P6SM BKN050 FM060500 34010KT P6SM FEW030 RMK FCST BASED ON AUTO OBS. NXT FCST BY 051200Z

超过4000个机场的气象观测和天气预报(METAR&TAF报告)。

可查询的气象台以黄色和红色小点在地图上表示。

将鼠标移到小点上方,可查看气象台名称。

然后点击查看天气观测和预报。

如需切换地图:点击带黑十字的绿色按钮放大地图;点击带横线的绿色按钮缩小地图;或者点击绿色箭头查看邻近地区的地图。


METAR-TAF: